sensor_id;sensor_type;location;lat;lon;timestamp;pressure;altitude;pressure_sealevel;temperature;humidity
35888;BME280;21990;42.540;23.496;2023-02-19T00:02:22;93797.50;;;0.80;93.38
35888;BME280;21990;42.540;23.496;2023-02-19T00:04:47;93790.56;;;0.85;93.69
35888;BME280;21990;42.540;23.496;2023-02-19T00:07:13;93779.75;;;0.87;93.24
35888;BME280;21990;42.540;23.496;2023-02-19T00:09:38;93760.31;;;0.96;92.62
35888;BME280;21990;42.540;23.496;2023-02-19T00:12:05;93770.19;;;0.97;93.36
35888;BME280;21990;42.540;23.496;2023-02-19T00:14:30;93771.25;;;0.90;93.81
35888;BME280;21990;42.540;23.496;2023-02-19T00:16:56;93762.94;;;0.90;93.69
35888;BME280;21990;42.540;23.496;2023-02-19T00:19:22;93769.25;;;1.00;92.97
35888;BME280;21990;42.540;23.496;2023-02-19T00:21:50;93769.69;;;1.08;92.56
35888;BME280;21990;42.540;23.496;2023-02-19T00:24:16;93772.75;;;1.10;92.09
35888;BME280;21990;42.540;23.496;2023-02-19T00:26:43;93750.28;;;1.08;91.29
35888;BME280;21990;42.540;23.496;2023-02-19T00:29:15;93766.63;;;0.97;92.04
35888;BME280;21990;42.540;23.496;2023-02-19T00:31:41;93752.91;;;1.02;92.90
35888;BME280;21990;42.540;23.496;2023-02-19T00:34:08;93753.97;;;1.05;92.43
35888;BME280;21990;42.540;23.496;2023-02-19T00:36:36;93751.16;;;1.14;94.35
35888;BME280;21990;42.540;23.496;2023-02-19T00:39:04;93752.06;;;1.20;92.95
35888;BME280;21990;42.540;23.496;2023-02-19T00:41:31;93743.16;;;1.16;93.25
35888;BME280;21990;42.540;23.496;2023-02-19T00:44:00;93722.00;;;1.18;93.49
35888;BME280;21990;42.540;23.496;2023-02-19T00:46:34;93727.38;;;1.22;94.33
35888;BME280;21990;42.540;23.496;2023-02-19T00:49:00;93737.69;;;1.30;94.50
35888;BME280;21990;42.540;23.496;2023-02-19T00:51:31;93716.13;;;1.58;94.06
35888;BME280;21990;42.540;23.496;2023-02-19T00:53:58;93713.81;;;1.80;93.93
35888;BME280;21990;42.540;23.496;2023-02-19T00:56:23;93705.69;;;2.15;92.66
35888;BME280;21990;42.540;23.496;2023-02-19T00:58:49;93709.25;;;2.30;91.98
35888;BME280;21990;42.540;23.496;2023-02-19T01:01:16;93700.31;;;2.79;89.12
35888;BME280;21990;42.540;23.496;2023-02-19T01:03:41;93696.28;;;3.10;88.28
35888;BME280;21990;42.540;23.496;2023-02-19T01:06:09;93708.94;;;3.25;86.84
35888;BME280;21990;42.540;23.496;2023-02-19T01:08:35;93703.00;;;3.53;85.92
35888;BME280;21990;42.540;23.496;2023-02-19T01:11:02;93677.47;;;3.74;85.30
35888;BME280;21990;42.540;23.496;2023-02-19T01:13:28;93675.91;;;4.08;81.90
35888;BME280;21990;42.540;23.496;2023-02-19T01:16:22;93708.50;;;4.43;81.17
35888;BME280;21990;42.540;23.496;2023-02-19T01:18:48;93694.34;;;4.72;79.40
35888;BME280;21990;42.540;23.496;2023-02-19T01:21:19;93701.91;;;4.92;78.87
35888;BME280;21990;42.540;23.496;2023-02-19T01:23:45;93691.84;;;5.00;77.15
35888;BME280;21990;42.540;23.496;2023-02-19T01:26:13;93697.88;;;5.24;76.81
35888;BME280;21990;42.540;23.496;2023-02-19T01:28:40;93692.09;;;5.33;75.73
35888;BME280;21990;42.540;23.496;2023-02-19T01:31:09;93679.34;;;5.58;74.32
35888;BME280;21990;42.540;23.496;2023-02-19T01:33:36;93681.00;;;5.76;72.98
35888;BME280;21990;42.540;23.496;2023-02-19T01:36:02;93661.56;;;6.03;71.54
35888;BME280;21990;42.540;23.496;2023-02-19T01:38:28;93662.50;;;6.37;69.27
35888;BME280;21990;42.540;23.496;2023-02-19T01:40:59;93672.25;;;6.69;68.69
35888;BME280;21990;42.540;23.496;2023-02-19T01:43:25;93673.09;;;7.14;65.20
35888;BME280;21990;42.540;23.496;2023-02-19T01:45:51;93689.66;;;7.18;66.80
35888;BME280;21990;42.540;23.496;2023-02-19T15:43:37;93349.66;;;13.31;56.28
35888;BME280;21990;42.540;23.496;2023-02-19T15:46:13;93342.63;;;13.25;57.13
35888;BME280;21990;42.540;23.496;2023-02-19T15:51:39;93345.56;;;13.12;58.50
35888;BME280;21990;42.540;23.496;2023-02-19T15:54:23;93355.63;;;13.00;58.33
35888;BME280;21990;42.540;23.496;2023-02-19T15:56:51;93358.72;;;12.89;58.48
35888;BME280;21990;42.540;23.496;2023-02-19T15:59:28;93364.75;;;12.85;59.49
35888;BME280;21990;42.540;23.496;2023-02-19T16:01:54;93367.84;;;12.74;59.43
35888;BME280;21990;42.540;23.496;2023-02-19T16:04:20;93376.53;;;12.55;59.78
35888;BME280;21990;42.540;23.496;2023-02-19T16:06:56;93376.59;;;12.42;60.33
35888;BME280;21990;42.540;23.496;2023-02-19T16:09:30;93376.94;;;12.38;59.71
35888;BME280;21990;42.540;23.496;2023-02-19T16:11:58;93372.84;;;12.26;59.87
35888;BME280;21990;42.540;23.496;2023-02-19T16:14:32;93378.56;;;12.13;59.85
35888;BME280;21990;42.540;23.496;2023-02-19T16:22:12;93390.78;;;11.82;60.50
35888;BME280;21990;42.540;23.496;2023-02-19T16:24:45;93387.31;;;11.76;60.39
35888;BME280;21990;42.540;23.496;2023-02-19T16:27:28;93391.53;;;11.69;60.96
35888;BME280;21990;42.540;23.496;2023-02-19T16:29:55;93391.31;;;11.67;61.23
35888;BME280;21990;42.540;23.496;2023-02-19T16:32:22;93391.09;;;11.52;61.93
35888;BME280;21990;42.540;23.496;2023-02-19T16:34:49;93397.97;;;11.43;61.82
35888;BME280;21990;42.540;23.496;2023-02-19T16:45:20;93414.31;;;11.06;60.76
35888;BME280;21990;42.540;23.496;2023-02-19T16:47:46;93425.81;;;11.08;60.55
35888;BME280;21990;42.540;23.496;2023-02-19T16:50:19;93430.25;;;11.03;60.23
35888;BME280;21990;42.540;23.496;2023-02-19T16:52:59;93433.94;;;11.11;59.84
35888;BME280;21990;42.540;23.496;2023-02-19T16:55:27;93436.13;;;11.18;59.91
35888;BME280;21990;42.540;23.496;2023-02-19T16:57:53;93433.41;;;11.26;60.20
35888;BME280;21990;42.540;23.496;2023-02-19T17:02:51;93443.25;;;11.06;60.75
35888;BME280;21990;42.540;23.496;2023-02-19T17:05:18;93444.25;;;11.09;60.48
35888;BME280;21990;42.540;23.496;2023-02-19T17:07:44;93450.75;;;11.04;61.32
35888;BME280;21990;42.540;23.496;2023-02-19T17:10:17;93452.69;;;10.95;61.02
35888;BME280;21990;42.540;23.496;2023-02-19T17:12:43;93455.91;;;10.86;61.32
35888;BME280;21990;42.540;23.496;2023-02-19T17:15:11;93453.63;;;10.85;61.83
35888;BME280;21990;42.540;23.496;2023-02-19T17:17:37;93468.78;;;10.82;62.34
35888;BME280;21990;42.540;23.496;2023-02-19T17:22:42;93463.59;;;10.54;63.42
35888;BME280;21990;42.540;23.496;2023-02-19T17:25:08;93470.59;;;10.47;63.82
35888;BME280;21990;42.540;23.496;2023-02-19T17:27:34;93483.78;;;10.39;63.96
35888;BME280;21990;42.540;23.496;2023-02-19T17:30:00;93485.53;;;10.42;64.49
35888;BME280;21990;42.540;23.496;2023-02-19T17:32:26;93479.06;;;10.29;64.86
35888;BME280;21990;42.540;23.496;2023-02-19T17:34:51;93480.91;;;10.26;65.44
35888;BME280;21990;42.540;23.496;2023-02-19T17:37:17;93481.78;;;10.16;65.32
35888;BME280;21990;42.540;23.496;2023-02-19T17:39:42;93486.69;;;10.15;65.61
35888;BME280;21990;42.540;23.496;2023-02-19T17:42:08;93488.16;;;9.97;66.18
35888;BME280;21990;42.540;23.496;2023-02-19T17:44:34;93491.72;;;9.98;66.05
35888;BME280;21990;42.540;23.496;2023-02-19T17:47:00;93491.78;;;9.92;66.10
35888;BME280;21990;42.540;23.496;2023-02-19T17:49:25;93500.06;;;9.85;66.10
35888;BME280;21990;42.540;23.496;2023-02-19T17:51:51;93500.75;;;9.72;67.58
35888;BME280;21990;42.540;23.496;2023-02-19T17:54:16;93516.09;;;9.71;68.21
35888;BME280;21990;42.540;23.496;2023-02-19T17:56:42;93515.28;;;9.52;67.50
35888;BME280;21990;42.540;23.496;2023-02-19T17:59:10;93512.59;;;9.41;68.87
35888;BME280;21990;42.540;23.496;2023-02-19T18:01:37;93518.41;;;9.48;68.93
35888;BME280;21990;42.540;23.496;2023-02-19T18:04:02;93505.63;;;9.47;68.50
35888;BME280;21990;42.540;23.496;2023-02-19T18:06:28;93504.22;;;9.35;68.89
35888;BME280;21990;42.540;23.496;2023-02-19T18:08:53;93509.06;;;9.35;68.90
35888;BME280;21990;42.540;23.496;2023-02-19T18:11:20;93514.50;;;9.27;69.11
35888;BME280;21990;42.540;23.496;2023-02-19T18:13:47;93517.78;;;9.31;69.56
35888;BME280;21990;42.540;23.496;2023-02-19T18:16:13;93514.22;;;9.31;69.45
35888;BME280;21990;42.540;23.496;2023-02-19T18:18:40;93509.59;;;9.33;69.73
35888;BME280;21990;42.540;23.496;2023-02-19T18:21:10;93520.59;;;9.31;68.90
35888;BME280;21990;42.540;23.496;2023-02-19T18:23:36;93520.50;;;9.18;69.38
35888;BME280;21990;42.540;23.496;2023-02-19T18:26:06;93520.75;;;9.15;69.73
35888;BME280;21990;42.540;23.496;2023-02-19T18:28:33;93524.41;;;9.10;69.36
35888;BME280;21990;42.540;23.496;2023-02-19T18:30:59;93534.41;;;9.05;69.18
35888;BME280;21990;42.540;23.496;2023-02-19T18:33:25;93535.38;;;9.07;70.45
35888;BME280;21990;42.540;23.496;2023-02-19T18:35:50;93534.69;;;9.01;70.67
35888;BME280;21990;42.540;23.496;2023-02-19T18:38:16;93540.13;;;8.94;69.84
35888;BME280;21990;42.540;23.496;2023-02-19T18:40:42;93539.38;;;8.88;70.47
35888;BME280;21990;42.540;23.496;2023-02-19T18:43:08;93550.09;;;8.89;70.69
35888;BME280;21990;42.540;23.496;2023-02-19T18:45:33;93551.25;;;8.75;70.64
35888;BME280;21990;42.540;23.496;2023-02-19T18:47:59;93555.34;;;8.69;71.22
35888;BME280;21990;42.540;23.496;2023-02-19T18:50:25;93564.03;;;8.71;71.18
35888;BME280;21990;42.540;23.496;2023-02-19T18:52:50;93568.97;;;8.59;71.22
35888;BME280;21990;42.540;23.496;2023-02-19T18:55:16;93560.81;;;8.55;71.20
35888;BME280;21990;42.540;23.496;2023-02-19T18:57:42;93565.41;;;8.53;71.35
35888;BME280;21990;42.540;23.496;2023-02-19T19:00:08;93565.19;;;8.45;72.22
35888;BME280;21990;42.540;23.496;2023-02-19T19:02:34;93566.28;;;8.26;72.52
35888;BME280;21990;42.540;23.496;2023-02-19T19:05:00;93564.53;;;8.17;73.11
35888;BME280;21990;42.540;23.496;2023-02-19T19:07:25;93570.66;;;8.21;73.13
35888;BME280;21990;42.540;23.496;2023-02-19T19:09:51;93578.28;;;8.26;72.93
35888;BME280;21990;42.540;23.496;2023-02-19T19:12:17;93579.59;;;8.20;73.34
35888;BME280;21990;42.540;23.496;2023-02-19T19:14:43;93585.22;;;8.20;73.32
35888;BME280;21990;42.540;23.496;2023-02-19T19:17:09;93582.44;;;8.14;73.53
35888;BME280;21990;42.540;23.496;2023-02-19T19:19:35;93576.09;;;8.02;72.85
35888;BME280;21990;42.540;23.496;2023-02-19T19:22:00;93596.53;;;7.97;73.80
35888;BME280;21990;42.540;23.496;2023-02-19T19:24:26;93593.75;;;7.86;74.15
35888;BME280;21990;42.540;23.496;2023-02-19T19:26:52;93595.31;;;7.71;73.77
35888;BME280;21990;42.540;23.496;2023-02-19T19:29:20;93593.81;;;7.70;74.36
35888;BME280;21990;42.540;23.496;2023-02-19T19:31:46;93608.88;;;7.61;74.98
35888;BME280;21990;42.540;23.496;2023-02-19T19:34:12;93611.44;;;7.53;75.75
35888;BME280;21990;42.540;23.496;2023-02-19T19:36:38;93619.09;;;7.42;76.41
35888;BME280;21990;42.540;23.496;2023-02-19T19:39:04;93618.06;;;7.45;76.22
35888;BME280;21990;42.540;23.496;2023-02-19T19:41:30;93613.47;;;7.53;75.89
35888;BME280;21990;42.540;23.496;2023-02-19T19:43:55;93611.44;;;7.53;76.00
35888;BME280;21990;42.540;23.496;2023-02-19T19:46:21;93614.22;;;7.48;75.56
35888;BME280;21990;42.540;23.496;2023-02-19T19:48:48;93612.72;;;7.47;75.26
35888;BME280;21990;42.540;23.496;2023-02-19T19:51:15;93615.78;;;7.38;75.32
35888;BME280;21990;42.540;23.496;2023-02-19T19:53:41;93622.66;;;7.42;75.26
35888;BME280;21990;42.540;23.496;2023-02-19T19:56:07;93627.75;;;7.49;74.56
35888;BME280;21990;42.540;23.496;2023-02-19T19:58:33;93629.53;;;7.47;75.44
35888;BME280;21990;42.540;23.496;2023-02-19T20:01:00;93635.66;;;7.40;74.59
35888;BME280;21990;42.540;23.496;2023-02-19T20:03:27;93632.34;;;7.30;74.27
35888;BME280;21990;42.540;23.496;2023-02-19T20:05:53;93630.06;;;7.29;74.54
35888;BME280;21990;42.540;23.496;2023-02-19T20:08:19;93630.56;;;7.27;75.70
35888;BME280;21990;42.540;23.496;2023-02-19T20:10:45;93635.66;;;7.18;75.54
35888;BME280;21990;42.540;23.496;2023-02-19T20:13:14;93626.47;;;7.17;75.28
35888;BME280;21990;42.540;23.496;2023-02-19T20:15:39;93623.19;;;6.96;75.87
35888;BME280;21990;42.540;23.496;2023-02-19T20:18:05;93638.69;;;6.97;76.15
35888;BME280;21990;42.540;23.496;2023-02-19T20:20:30;93634.09;;;6.89;76.66
35888;BME280;21990;42.540;23.496;2023-02-19T20:22:56;93633.84;;;6.87;76.95
35888;BME280;21990;42.540;23.496;2023-02-19T20:25:22;93634.84;;;6.78;77.18
35888;BME280;21990;42.540;23.496;2023-02-19T20:27:49;93635.13;;;6.80;77.33
35888;BME280;21990;42.540;23.496;2023-02-19T20:30:17;93623.41;;;6.87;75.99
35888;BME280;21990;42.540;23.496;2023-02-19T20:32:43;93635.41;;;7.10;75.31
35888;BME280;21990;42.540;23.496;2023-02-19T20:35:08;93633.63;;;7.35;74.35
35888;BME280;21990;42.540;23.496;2023-02-19T20:37:37;93638.69;;;7.64;73.02
35888;BME280;21990;42.540;23.496;2023-02-19T20:40:03;93636.06;;;7.94;72.17
35888;BME280;21990;42.540;23.496;2023-02-19T20:42:28;93639.56;;;8.22;70.31
35888;BME280;21990;42.540;23.496;2023-02-19T20:44:54;93640.72;;;8.54;68.59
35888;BME280;21990;42.540;23.496;2023-02-19T20:47:21;93643.41;;;8.77;68.13
35888;BME280;21990;42.540;23.496;2023-02-19T20:49:46;93635.59;;;8.99;67.11
35888;BME280;21990;42.540;23.496;2023-02-19T20:52:14;93647.00;;;9.18;66.56
35888;BME280;21990;42.540;23.496;2023-02-19T20:54:40;93642.25;;;9.37;66.06
35888;BME280;21990;42.540;23.496;2023-02-19T20:57:07;93643.09;;;9.57;65.56
35888;BME280;21990;42.540;23.496;2023-02-19T20:59:33;93638.84;;;9.74;64.87
35888;BME280;21990;42.540;23.496;2023-02-19T21:02:01;93647.66;;;9.89;64.49
35888;BME280;21990;42.540;23.496;2023-02-19T21:04:27;93641.25;;;10.13;63.38
35888;BME280;21990;42.540;23.496;2023-02-19T21:06:52;93638.19;;;10.17;63.58
35888;BME280;21990;42.540;23.496;2023-02-19T21:09:18;93630.19;;;10.21;63.09
35888;BME280;21990;42.540;23.496;2023-02-19T21:11:44;93634.47;;;10.27;63.43
35888;BME280;21990;42.540;23.496;2023-02-19T21:14:10;93632.53;;;10.41;62.91
35888;BME280;21990;42.540;23.496;2023-02-19T21:16:36;93635.81;;;10.45;62.96
35888;BME280;21990;42.540;23.496;2023-02-19T21:19:02;93630.09;;;10.51;62.80
35888;BME280;21990;42.540;23.496;2023-02-19T21:21:28;93625.31;;;10.45;62.86
35888;BME280;21990;42.540;23.496;2023-02-19T21:23:57;93624.53;;;10.45;63.10
35888;BME280;21990;42.540;23.496;2023-02-19T21:26:24;93626.75;;;10.52;62.75
35888;BME280;21990;42.540;23.496;2023-02-19T21:28:56;93637.56;;;10.48;62.77
35888;BME280;21990;42.540;23.496;2023-02-19T21:31:22;93634.22;;;10.50;62.43
35888;BME280;21990;42.540;23.496;2023-02-19T21:33:47;93633.94;;;10.53;62.34
35888;BME280;21990;42.540;23.496;2023-02-19T21:36:13;93642.06;;;10.57;62.02
35888;BME280;21990;42.540;23.496;2023-02-19T21:38:38;93650.28;;;10.55;62.12
35888;BME280;21990;42.540;23.496;2023-02-19T21:41:04;93653.56;;;10.59;61.84
35888;BME280;21990;42.540;23.496;2023-02-19T21:43:29;93651.03;;;10.55;62.06
35888;BME280;21990;42.540;23.496;2023-02-19T21:45:55;93653.09;;;10.55;61.82
35888;BME280;21990;42.540;23.496;2023-02-19T21:48:21;93648.53;;;10.52;61.87
35888;BME280;21990;42.540;23.496;2023-02-19T21:50:46;93639.84;;;10.50;61.44
35888;BME280;21990;42.540;23.496;2023-02-19T21:53:13;93644.94;;;10.51;61.65
35888;BME280;21990;42.540;23.496;2023-02-19T21:55:38;93652.63;;;10.51;61.36
35888;BME280;21990;42.540;23.496;2023-02-19T21:58:05;93649.09;;;10.50;60.85
35888;BME280;21990;42.540;23.496;2023-02-19T22:00:31;93648.38;;;10.44;60.76
35888;BME280;21990;42.540;23.496;2023-02-19T22:02:56;93653.94;;;10.50;60.10
35888;BME280;21990;42.540;23.496;2023-02-19T22:05:23;93674.19;;;10.48;60.36
35888;BME280;21990;42.540;23.496;2023-02-19T22:07:49;93674.47;;;10.44;60.23
35888;BME280;21990;42.540;23.496;2023-02-19T22:10:17;93668.91;;;10.39;60.67
35888;BME280;21990;42.540;23.496;2023-02-19T22:12:43;93685.59;;;10.37;60.75
35888;BME280;21990;42.540;23.496;2023-02-19T22:15:08;93679.44;;;10.38;60.33
35888;BME280;21990;42.540;23.496;2023-02-19T22:17:34;93673.34;;;10.34;60.67
35888;BME280;21990;42.540;23.496;2023-02-19T22:19:59;93685.59;;;10.37;60.91
35888;BME280;21990;42.540;23.496;2023-02-19T22:22:25;93684.81;;;10.36;60.85
35888;BME280;21990;42.540;23.496;2023-02-19T22:24:51;93687.97;;;10.27;61.20
35888;BME280;21990;42.540;23.496;2023-02-19T22:27:16;93687.72;;;10.31;60.82
35888;BME280;21990;42.540;23.496;2023-02-19T22:29:42;93696.69;;;10.29;60.68
35888;BME280;21990;42.540;23.496;2023-02-19T22:32:07;93684.44;;;10.27;61.09
35888;BME280;21990;42.540;23.496;2023-02-19T22:34:37;93702.31;;;10.29;61.13
35888;BME280;21990;42.540;23.496;2023-02-19T22:37:03;93707.69;;;10.27;60.94
35888;BME280;21990;42.540;23.496;2023-02-19T22:39:29;93716.44;;;10.24;61.15
35888;BME280;21990;42.540;23.496;2023-02-19T22:41:55;93708.81;;;10.19;61.10
35888;BME280;21990;42.540;23.496;2023-02-19T22:44:21;93713.44;;;10.16;61.49
35888;BME280;21990;42.540;23.496;2023-02-19T22:46:52;93712.66;;;10.16;61.50
35888;BME280;21990;42.540;23.496;2023-02-19T22:49:18;93727.78;;;10.13;61.92
35888;BME280;21990;42.540;23.496;2023-02-19T22:52:05;93732.66;;;10.12;61.64
35888;BME280;21990;42.540;23.496;2023-02-19T22:54:33;93734.25;;;10.08;61.85
35888;BME280;21990;42.540;23.496;2023-02-19T22:56:59;93731.19;;;10.06;61.93
35888;BME280;21990;42.540;23.496;2023-02-19T22:59:24;93745.03;;;10.04;62.17
35888;BME280;21990;42.540;23.496;2023-02-19T23:01:50;93745.28;;;10.00;62.34
35888;BME280;21990;42.540;23.496;2023-02-19T23:04:16;93730.22;;;9.97;62.39
35888;BME280;21990;42.540;23.496;2023-02-19T23:06:42;93733.59;;;9.96;62.70
35888;BME280;21990;42.540;23.496;2023-02-19T23:09:22;93715.19;;;9.89;63.61
35888;BME280;21990;42.540;23.496;2023-02-19T23:11:48;93719.59;;;9.85;63.47
35888;BME280;21990;42.540;23.496;2023-02-19T23:14:16;93725.97;;;9.85;63.94
35888;BME280;21990;42.540;23.496;2023-02-19T23:16:42;93724.00;;;9.80;64.16
35888;BME280;21990;42.540;23.496;2023-02-19T23:19:09;93743.25;;;9.71;64.68
35888;BME280;21990;42.540;23.496;2023-02-19T23:21:40;93725.09;;;9.66;64.73
35888;BME280;21990;42.540;23.496;2023-02-19T23:24:05;93726.66;;;9.67;64.73
35888;BME280;21990;42.540;23.496;2023-02-19T23:26:32;93738.94;;;9.64;65.07
35888;BME280;21990;42.540;23.496;2023-02-19T23:28:57;93744.31;;;9.62;65.13
35888;BME280;21990;42.540;23.496;2023-02-19T23:31:23;93742.56;;;9.59;64.97
35888;BME280;21990;42.540;23.496;2023-02-19T23:33:50;93734.88;;;9.60;65.33
35888;BME280;21990;42.540;23.496;2023-02-19T23:36:15;93740.78;;;9.56;65.42
35888;BME280;21990;42.540;23.496;2023-02-19T23:38:45;93749.47;;;9.58;65.60
35888;BME280;21990;42.540;23.496;2023-02-19T23:41:12;93747.97;;;9.57;65.82
35888;BME280;21990;42.540;23.496;2023-02-19T23:43:38;93748.97;;;9.54;66.13
35888;BME280;21990;42.540;23.496;2023-02-19T23:46:04;93752.34;;;9.52;66.81
35888;BME280;21990;42.540;23.496;2023-02-19T23:48:30;93753.34;;;9.49;66.82
35888;BME280;21990;42.540;23.496;2023-02-19T23:50:56;93765.66;;;9.46;67.00
35888;BME280;21990;42.540;23.496;2023-02-19T23:53:22;93771.56;;;9.43;67.14
35888;BME280;21990;42.540;23.496;2023-02-19T23:55:48;93773.59;;;9.48;67.05
35888;BME280;21990;42.540;23.496;2023-02-19T23:58:13;93776.91;;;9.46;67.20
